Terminal Aerodrome Forecast
Issued by NWS Louisville, KY

Home | Current Version | Previous Version | Text Only | Print | Product List | Glossary On
Versions: 1 2 3 4 5 6 7 8 9 10 11 12 13 14 15 16 17 18
306
FTUS43 KLMK 050120 AAA
TAFSDF
TAF AMD
KSDF 050120Z 0501/0606 26008KT P6SM BKN015
     FM050500 30006KT 5SM BR OVC008
      TEMPO 0510/0513 2SM BR OVC005
     FM051500 08004KT 5SM BR OVC014
     FM051900 09006KT P6SM SCT020 BKN200=

USA.gov is the U.S. government's official web portal to all federal, state and local government web resources and services.